createdAt,value
2018-03-23T00:00:32.915Z,0.50
2018-03-23T00:03:00.927Z,0.50
2018-03-23T00:05:30.272Z,0.50
2018-03-23T00:08:00.279Z,0.50
2018-03-23T00:10:30.199Z,0.50
2018-03-23T00:13:00.247Z,0.50
2018-03-23T00:15:28.251Z,0.50
2018-03-23T00:17:56.263Z,0.50
2018-03-23T00:20:24.317Z,0.50
2018-03-23T00:22:52.320Z,0.50
2018-03-23T00:25:22.779Z,0.50
2018-03-23T00:27:52.859Z,0.50
2018-03-23T00:30:42.415Z,0.50
2018-03-23T00:33:11.418Z,0.50
2018-03-23T00:35:45.011Z,0.50
2018-03-23T00:38:14.683Z,0.60
2018-03-23T00:40:44.463Z,0.60
2018-03-23T00:43:14.255Z,0.60
2018-03-23T00:45:42.279Z,0.60
2018-03-23T00:48:12.229Z,0.60
2018-03-23T00:50:40.271Z,0.60
2018-03-23T00:53:09.278Z,0.60
2018-03-23T00:55:37.299Z,0.60
2018-03-23T00:58:10.847Z,0.60
2018-03-23T01:00:45.279Z,0.60
2018-03-23T01:03:14.287Z,0.60
2018-03-23T01:05:42.295Z,0.60
2018-03-23T01:08:11.275Z,0.60
2018-03-23T01:10:40.215Z,0.60
2018-03-23T01:13:08.230Z,0.60
2018-03-23T01:15:44.407Z,0.60
2018-03-23T01:18:12.420Z,0.60
2018-03-23T01:20:41.427Z,0.60
2018-03-23T01:23:10.415Z,0.60
2018-03-23T01:25:38.462Z,0.60
2018-03-23T01:28:08.179Z,0.60
2018-03-23T01:30:44.406Z,0.60
2018-03-23T01:33:12.422Z,0.60
2018-03-23T01:35:40.430Z,0.60
2018-03-23T01:38:08.466Z,0.60
2018-03-23T01:40:40.099Z,0.60
2018-03-23T01:43:09.110Z,0.60
2018-03-23T01:45:37.106Z,0.60
2018-03-23T01:48:10.774Z,0.60
2018-03-23T01:50:40.794Z,0.50
2018-03-23T01:56:09.815Z,0.60
2018-03-23T01:58:46.159Z,0.60
2018-03-23T02:01:14.167Z,0.60
2018-03-23T02:03:42.972Z,0.60
2018-03-23T02:06:11.005Z,0.50
2018-03-23T02:08:39.986Z,0.60
2018-03-23T02:11:07.993Z,0.60
2018-03-23T02:13:37.770Z,0.60
2018-03-23T02:16:05.794Z,0.60
2018-03-23T02:18:34.794Z,0.60
2018-03-23T02:21:04.734Z,0.60
2018-03-23T02:23:36.095Z,0.60
2018-03-23T02:26:04.105Z,0.60
2018-03-23T02:28:32.138Z,0.60
2018-03-23T02:31:01.158Z,0.60
2018-03-23T02:33:33.532Z,0.60
2018-03-23T02:36:04.510Z,0.60
2018-03-23T02:38:42.920Z,0.50
2018-03-23T02:41:16.503Z,0.60
2018-03-23T02:43:50.859Z,0.60
2018-03-23T02:46:19.934Z,0.60
2018-03-23T02:48:58.074Z,0.60
2018-03-23T02:51:27.068Z,0.60
2018-03-23T02:56:48.841Z,0.60
2018-03-23T02:59:21.324Z,0.60
2018-03-23T03:01:51.102Z,0.60
2018-03-23T03:04:26.082Z,0.60
2018-03-23T03:06:54.093Z,0.60
2018-03-23T03:09:36.207Z,0.60
2018-03-23T03:12:05.162Z,0.60
2018-03-23T03:14:36.122Z,0.60
2018-03-23T03:17:15.514Z,0.60
2018-03-23T03:19:43.526Z,0.60
2018-03-23T03:22:37.341Z,0.60
2018-03-23T03:25:06.306Z,0.60
2018-03-23T03:27:35.286Z,0.60
2018-03-23T03:30:04.890Z,0.60
2018-03-23T03:32:32.902Z,0.70
2018-03-23T03:35:06.866Z,0.70
2018-03-23T03:37:34.913Z,0.70
2018-03-23T03:40:02.925Z,0.70
2018-03-23T03:42:33.626Z,0.70
2018-03-23T03:45:13.037Z,0.70
2018-03-23T03:47:45.222Z,0.70
2018-03-23T03:50:13.244Z,0.70
2018-03-23T03:52:46.717Z,0.70
2018-03-23T03:55:14.751Z,0.70
2018-03-23T03:57:48.379Z,0.70
2018-03-23T04:00:21.346Z,0.70
2018-03-23T04:02:49.374Z,0.70
2018-03-23T04:05:18.301Z,0.70
2018-03-23T04:10:41.389Z,0.70
2018-03-23T04:13:10.422Z,0.70
2018-03-23T04:15:40.186Z,0.70
2018-03-23T04:18:08.213Z,0.70
2018-03-23T04:20:36.261Z,0.70
2018-03-23T04:23:15.162Z,0.70
2018-03-23T04:25:46.394Z,0.70
2018-03-23T04:28:15.407Z,0.70
2018-03-23T04:30:43.438Z,0.70
2018-03-23T04:33:12.454Z,0.70
2018-03-23T04:35:41.457Z,0.70
2018-03-23T04:38:13.930Z,0.70
2018-03-23T04:40:41.945Z,0.70
2018-03-23T04:43:14.571Z,0.80
2018-03-23T04:45:46.250Z,0.80
2018-03-23T04:48:14.266Z,0.80
2018-03-23T04:50:43.298Z,0.70
2018-03-23T04:53:13.086Z,0.70
2018-03-23T04:55:43.014Z,0.70
2018-03-23T04:58:13.070Z,0.70
2018-03-23T05:01:00.322Z,0.80
2018-03-23T05:03:28.351Z,0.80
2018-03-23T05:05:58.101Z,0.70
2018-03-23T05:08:30.955Z,0.70
2018-03-23T05:10:59.761Z,0.70
2018-03-23T05:13:28.718Z,0.70
2018-03-23T05:16:00.662Z,0.70
2018-03-23T05:18:28.683Z,0.80
2018-03-23T05:21:03.309Z,0.80
2018-03-23T05:23:47.311Z,0.80
2018-03-23T05:29:21.434Z,0.80
2018-03-23T05:31:49.470Z,0.80
2018-03-23T05:34:25.418Z,0.80
2018-03-23T05:37:00.194Z,0.80
2018-03-23T05:39:34.405Z,0.80
2018-03-23T05:42:03.400Z,0.80
2018-03-23T05:44:32.369Z,0.90
2018-03-23T05:47:00.381Z,0.90
2018-03-23T05:52:37.937Z,0.90
2018-03-23T05:55:09.921Z,0.90
2018-03-23T05:57:37.953Z,0.90
2018-03-23T06:00:10.665Z,0.90
2018-03-23T06:02:44.608Z,0.90
2018-03-23T06:05:13.393Z,1.00
2018-03-23T06:07:51.841Z,1.00
2018-03-23T06:10:25.089Z,1.00
2018-03-23T06:13:13.169Z,1.00
2018-03-23T06:18:43.520Z,1.00
2018-03-23T06:21:18.077Z,1.00
2018-03-23T06:23:59.101Z,0.90
2018-03-23T06:26:27.119Z,1.00
2018-03-23T06:29:07.833Z,1.00
2018-03-23T06:31:35.865Z,1.00
2018-03-23T06:34:22.825Z,1.00
2018-03-23T06:36:52.777Z,1.10
2018-03-23T06:39:26.481Z,1.10
2018-03-23T06:41:54.516Z,1.10
2018-03-23T06:44:22.517Z,1.10
2018-03-23T06:46:50.529Z,1.10
2018-03-23T06:49:22.865Z,1.10
2018-03-23T06:52:03.992Z,1.20
2018-03-23T06:54:32.924Z,1.20
2018-03-23T06:57:02.995Z,1.20
2018-03-23T06:59:32.765Z,1.30
2018-03-23T07:02:04.593Z,1.30
2018-03-23T07:04:32.620Z,1.30
2018-03-23T07:07:05.905Z,1.40
2018-03-23T07:09:33.944Z,1.40
2018-03-23T07:12:01.976Z,1.40
2018-03-23T07:14:30.532Z,1.50
2018-03-23T07:16:59.325Z,1.60
2018-03-23T07:19:31.260Z,1.60
2018-03-23T07:22:01.279Z,1.60
2018-03-23T07:27:31.072Z,1.70
2018-03-23T07:30:05.677Z,1.70
2018-03-23T07:32:37.164Z,1.60
2018-03-23T07:35:05.189Z,1.70
2018-03-23T07:37:33.216Z,1.60
2018-03-23T07:40:02.117Z,1.60
2018-03-23T07:42:30.128Z,1.60
2018-03-23T07:44:59.052Z,1.60
2018-03-23T07:47:29.076Z,1.70
2018-03-23T07:50:02.308Z,1.70
2018-03-23T07:52:31.108Z,1.80
2018-03-23T07:54:59.128Z,1.80
2018-03-23T07:57:28.124Z,1.80
2018-03-23T07:59:57.116Z,1.80
2018-03-23T08:02:26.096Z,1.80
2018-03-23T08:05:03.812Z,1.80
2018-03-23T08:07:31.830Z,1.80
2018-03-23T08:09:59.872Z,1.70
2018-03-23T08:12:32.432Z,1.70
2018-03-23T08:15:00.488Z,1.90
2018-03-23T08:17:32.484Z,2.10
2018-03-23T08:20:03.180Z,2.60
2018-03-23T08:22:35.241Z,2.50
2018-03-23T08:25:04.248Z,2.80
2018-03-23T08:27:32.255Z,2.70
2018-03-23T08:30:00.884Z,2.70
2018-03-23T08:32:29.812Z,2.70
2018-03-23T08:35:02.004Z,2.80
2018-03-23T08:37:30.936Z,2.80
2018-03-23T08:39:59.316Z,2.90
2018-03-23T08:42:28.208Z,2.80
2018-03-23T08:44:57.216Z,2.80
2018-03-23T08:47:27.224Z,2.80
2018-03-23T08:49:56.858Z,2.80
2018-03-23T08:52:25.624Z,2.80
2018-03-23T08:54:55.621Z,2.80
2018-03-23T08:57:23.644Z,2.90
2018-03-23T08:59:52.100Z,2.90
2018-03-23T09:02:20.879Z,3.00
2018-03-23T09:04:48.900Z,3.00
2018-03-23T09:07:16.904Z,2.90
2018-03-23T09:09:44.928Z,2.90
2018-03-23T09:12:12.929Z,2.90
2018-03-23T09:14:41.936Z,3.10
2018-03-23T09:17:09.933Z,3.20
2018-03-23T09:19:38.715Z,3.60
2018-03-23T09:22:07.500Z,3.70
2018-03-23T09:24:36.284Z,3.70
2018-03-23T09:27:07.444Z,3.70
2018-03-23T09:29:36.220Z,3.50
2018-03-23T09:32:04.988Z,3.50
2018-03-23T09:34:33.000Z,3.50
2018-03-23T09:37:06.804Z,3.50
2018-03-23T09:39:35.640Z,3.30
2018-03-23T09:42:03.648Z,3.30
2018-03-23T09:44:32.429Z,3.20
2018-03-23T09:47:01.388Z,3.10
2018-03-23T09:49:29.735Z,3.30
2018-03-23T09:51:59.319Z,3.40
2018-03-23T09:54:27.336Z,3.60
2018-03-23T09:56:59.499Z,3.60
2018-03-23T09:59:28.556Z,3.50
2018-03-23T10:01:57.492Z,3.60
2018-03-23T10:04:26.480Z,3.70
2018-03-23T10:06:56.864Z,3.80
2018-03-23T10:09:25.289Z,3.80
2018-03-23T10:11:54.272Z,3.70
2018-03-23T10:14:22.307Z,3.70
2018-03-23T10:16:51.259Z,3.60
2018-03-23T10:19:19.263Z,3.60
2018-03-23T10:21:49.247Z,3.50
2018-03-23T10:24:17.251Z,3.50
2018-03-23T10:26:47.203Z,3.40
2018-03-23T10:29:20.823Z,3.30
2018-03-23T10:31:49.180Z,3.20
2018-03-23T10:34:22.484Z,3.20
2018-03-23T10:36:52.488Z,3.20
2018-03-23T10:39:26.461Z,3.30
2018-03-23T10:41:55.355Z,3.30
2018-03-23T10:44:23.410Z,3.30
2018-03-23T10:46:55.199Z,3.20
2018-03-23T10:49:42.096Z,3.20
2018-03-23T10:52:10.112Z,3.30
2018-03-23T10:54:40.176Z,3.30
2018-03-23T10:57:09.167Z,3.30
2018-03-23T10:59:37.167Z,3.30
2018-03-23T11:02:06.979Z,3.40
2018-03-23T11:04:39.059Z,3.40
2018-03-23T11:07:11.675Z,3.40
2018-03-23T11:09:42.360Z,3.50
2018-03-23T11:12:11.263Z,3.40
2018-03-23T11:14:40.171Z,3.50
2018-03-23T11:17:08.631Z,3.60
2018-03-23T11:19:36.638Z,3.70
2018-03-23T11:22:05.416Z,3.90
2018-03-23T11:24:34.331Z,3.90
2018-03-23T11:27:02.350Z,4.00
2018-03-23T11:29:30.351Z,4.10
2018-03-23T11:32:06.147Z,4.10
2018-03-23T11:34:37.886Z,4.10
2018-03-23T11:37:11.518Z,4.10
2018-03-23T11:39:39.546Z,4.00
2018-03-23T11:42:08.499Z,4.00
2018-03-23T11:44:40.846Z,4.00
2018-03-23T11:47:10.751Z,4.00
2018-03-23T11:49:44.371Z,4.00
2018-03-23T11:52:12.379Z,4.10
2018-03-23T11:55:01.043Z,4.30
2018-03-23T11:57:29.052Z,4.30
2018-03-23T11:59:58.967Z,4.30
2018-03-23T12:02:27.883Z,4.30
2018-03-23T12:04:56.863Z,4.40
2018-03-23T12:07:25.806Z,4.50
2018-03-23T12:09:53.806Z,4.50
2018-03-23T12:12:21.811Z,4.60
2018-03-23T12:14:49.835Z,4.70
2018-03-23T12:17:17.857Z,4.90
2018-03-23T12:19:49.067Z,5.00
2018-03-23T12:22:17.074Z,5.00
2018-03-23T12:24:46.839Z,5.10
2018-03-23T12:27:16.763Z,5.00
2018-03-23T12:29:44.794Z,5.00
2018-03-23T12:32:13.743Z,4.90
2018-03-23T12:34:42.826Z,4.80
2018-03-23T12:37:10.822Z,4.60
2018-03-23T12:39:40.587Z,4.30
2018-03-23T12:42:09.590Z,4.30
2018-03-23T12:44:51.751Z,4.30
2018-03-23T12:47:20.678Z,4.30
2018-03-23T12:49:49.696Z,4.30
2018-03-23T12:52:21.218Z,4.20
2018-03-23T12:54:54.027Z,4.20
2018-03-23T12:57:25.870Z,4.20
2018-03-23T12:59:59.678Z,4.30
2018-03-23T13:02:30.706Z,4.30
2018-03-23T13:05:03.514Z,4.30
2018-03-23T13:07:35.038Z,4.30
2018-03-23T13:10:06.917Z,4.40
2018-03-23T13:12:34.930Z,4.60
2018-03-23T13:15:06.424Z,4.70
2018-03-23T13:17:34.450Z,5.00
2018-03-23T13:20:02.470Z,5.20
2018-03-23T13:22:30.498Z,5.50
2018-03-23T13:25:03.074Z,5.60
2018-03-23T13:27:33.059Z,5.70
2018-03-23T13:30:01.883Z,5.40
2018-03-23T13:32:30.814Z,5.40
2018-03-23T13:34:58.830Z,5.40
2018-03-23T13:37:29.068Z,5.30
2018-03-23T13:40:06.868Z,5.10
2018-03-23T13:42:34.911Z,4.90
2018-03-23T13:45:06.834Z,4.80
2018-03-23T13:47:35.950Z,4.80
2018-03-23T13:50:08.484Z,4.80
2018-03-23T13:52:36.430Z,4.90
2018-03-23T13:55:04.426Z,5.00
2018-03-23T13:57:37.939Z,5.00
2018-03-23T14:00:05.990Z,4.90
2018-03-23T14:02:34.714Z,4.90
2018-03-23T14:05:06.554Z,4.90
2018-03-23T14:07:42.901Z,4.80
2018-03-23T14:10:21.014Z,5.10
2018-03-23T14:12:50.028Z,5.10
2018-03-23T14:15:18.042Z,5.10
2018-03-23T14:17:47.032Z,5.20
2018-03-23T14:20:21.172Z,5.10
2018-03-23T14:22:52.438Z,5.00
2018-03-23T14:25:28.870Z,5.20
2018-03-23T14:27:57.897Z,5.50
2018-03-23T14:30:30.065Z,5.60
2018-03-23T14:32:59.050Z,5.70
2018-03-23T14:35:27.053Z,5.90
2018-03-23T14:38:10.502Z,6.10
2018-03-23T14:40:51.478Z,6.00
2018-03-23T14:43:19.525Z,6.00
2018-03-23T14:45:50.005Z,6.00
2018-03-23T14:48:28.009Z,6.00
2018-03-23T14:50:56.697Z,5.90
2018-03-23T14:53:24.705Z,5.90
2018-03-23T14:55:59.276Z,5.90
2018-03-23T14:58:27.281Z,5.90
2018-03-23T15:00:56.110Z,5.80
2018-03-23T15:03:24.166Z,5.80
2018-03-23T15:05:52.634Z,5.80
2018-03-23T15:08:23.382Z,5.80
2018-03-23T15:10:52.155Z,6.30
2018-03-23T15:13:29.325Z,6.30
2018-03-23T15:15:58.266Z,6.70
2018-03-23T15:18:27.349Z,7.00
2018-03-23T15:20:56.392Z,7.10
2018-03-23T15:23:28.049Z,6.90
2018-03-23T15:26:02.429Z,6.90
2018-03-23T15:28:30.865Z,6.70
2018-03-23T15:31:02.505Z,6.30
2018-03-23T15:36:25.874Z,6.10
2018-03-23T15:38:53.877Z,5.80
2018-03-23T15:41:27.418Z,5.60
2018-03-23T15:43:57.353Z,5.60
2018-03-23T15:46:30.947Z,5.50
2018-03-23T15:48:58.985Z,5.50
2018-03-23T15:51:33.981Z,5.60
2018-03-23T15:54:02.001Z,5.60
2018-03-23T15:56:30.008Z,5.70
2018-03-23T15:59:00.010Z,5.70
2018-03-23T16:01:30.026Z,5.80
2018-03-23T16:03:59.694Z,5.90
2018-03-23T16:06:28.033Z,6.00
2018-03-23T16:09:02.488Z,6.00
2018-03-23T16:11:32.451Z,6.00
2018-03-23T16:14:05.701Z,6.00
2018-03-23T16:16:33.710Z,5.80
2018-03-23T16:19:01.717Z,5.70
2018-03-23T16:21:31.481Z,5.50
2018-03-23T16:24:04.297Z,5.50
2018-03-23T16:26:32.305Z,5.40
2018-03-23T16:29:01.225Z,5.30
2018-03-23T16:31:30.225Z,5.30
2018-03-23T16:33:58.321Z,5.30
2018-03-23T16:36:26.253Z,5.20
2018-03-23T16:38:54.261Z,5.10
2018-03-23T16:41:24.981Z,5.10
2018-03-23T16:43:53.953Z,5.00
2018-03-23T16:46:22.007Z,4.90
2018-03-23T16:48:56.732Z,4.90
2018-03-23T16:51:24.741Z,4.80
2018-03-23T16:53:52.749Z,4.70
2018-03-23T16:56:20.765Z,4.60
2018-03-23T16:58:56.797Z,4.50
2018-03-23T17:01:30.564Z,4.50
2018-03-23T17:04:06.365Z,4.40
2018-03-23T17:09:30.233Z,4.10
2018-03-23T17:11:59.193Z,4.10
2018-03-23T17:14:28.097Z,4.10
2018-03-23T17:16:57.121Z,4.00
2018-03-23T17:19:30.773Z,4.00
2018-03-23T17:21:58.773Z,4.00
2018-03-23T17:24:28.726Z,4.00
2018-03-23T17:26:56.768Z,4.00
2018-03-23T17:29:24.757Z,4.00
2018-03-23T17:31:53.745Z,3.90
2018-03-23T17:34:26.098Z,3.90
2018-03-23T17:36:58.094Z,3.80
2018-03-23T17:39:26.109Z,3.80
2018-03-23T17:41:55.776Z,3.70
2018-03-23T17:44:23.793Z,3.70
2018-03-23T17:47:00.545Z,3.60
2018-03-23T17:49:34.681Z,3.60
2018-03-23T17:52:02.697Z,3.60
2018-03-23T17:54:31.677Z,3.50
2018-03-23T17:57:01.602Z,3.30
2018-03-23T17:59:30.584Z,3.30
2018-03-23T18:02:00.509Z,3.20
2018-03-23T18:04:33.173Z,3.20
2018-03-23T18:07:04.933Z,3.10
2018-03-23T18:09:33.928Z,3.10
2018-03-23T18:12:01.957Z,3.10
2018-03-23T18:14:30.900Z,3.00
2018-03-23T18:17:04.679Z,2.90
2018-03-23T18:19:37.488Z,2.90
2018-03-23T18:22:10.153Z,2.90
2018-03-23T18:24:38.221Z,2.90
2018-03-23T18:27:07.229Z,2.90
2018-03-23T18:29:36.213Z,3.00
2018-03-23T18:32:04.241Z,3.00
2018-03-23T18:34:32.260Z,3.10
2018-03-23T18:37:02.269Z,3.10
2018-03-23T18:39:31.257Z,3.10
2018-03-23T18:41:59.277Z,3.10
2018-03-23T18:44:28.053Z,3.10
2018-03-23T18:46:56.057Z,3.10
2018-03-23T18:49:24.072Z,3.00
2018-03-23T18:51:52.078Z,3.00
2018-03-23T18:54:32.576Z,2.90
2018-03-23T18:57:14.489Z,2.80
2018-03-23T18:59:42.480Z,2.80
2018-03-23T19:02:16.469Z,2.90
2018-03-23T19:04:44.496Z,2.90
2018-03-23T19:07:17.105Z,2.90
2018-03-23T19:09:45.112Z,2.90
2018-03-23T19:12:19.192Z,2.90
2018-03-23T19:14:50.912Z,2.90
2018-03-23T19:17:24.636Z,2.90
2018-03-23T19:19:57.849Z,2.90
2018-03-23T19:22:36.344Z,2.80
2018-03-23T19:25:04.369Z,2.70
2018-03-23T19:27:34.156Z,2.60
2018-03-23T19:30:03.132Z,2.50
2018-03-23T19:32:32.112Z,2.60
2018-03-23T19:35:00.136Z,2.60
2018-03-23T19:37:32.464Z,2.60
2018-03-23T19:40:01.489Z,2.50
2018-03-23T19:42:36.556Z,2.50
2018-03-23T19:45:05.484Z,2.50
2018-03-23T19:47:39.180Z,2.50
2018-03-23T19:50:08.380Z,2.50
2018-03-23T19:55:37.408Z,2.50
2018-03-23T19:58:14.136Z,2.50
2018-03-23T20:00:59.579Z,2.50
2018-03-23T20:03:29.355Z,2.50
2018-03-23T20:06:07.337Z,2.50
2018-03-23T20:08:56.489Z,2.50
2018-03-23T20:11:25.536Z,2.40
2018-03-23T20:14:12.260Z,2.40
2018-03-23T20:16:41.071Z,2.40
2018-03-23T20:19:12.368Z,2.40
2018-03-23T20:21:42.304Z,2.30
2018-03-23T20:24:18.440Z,2.30
2018-03-23T20:29:55.468Z,2.30
2018-03-23T20:35:17.283Z,2.30
2018-03-23T20:37:46.276Z,2.30
2018-03-23T20:40:15.264Z,2.30
2018-03-23T20:42:49.172Z,2.30
2018-03-23T20:45:42.087Z,2.20
2018-03-23T20:48:29.883Z,2.20
2018-03-23T20:51:03.571Z,2.10
2018-03-23T20:53:31.656Z,2.10
2018-03-23T20:56:00.646Z,2.10
2018-03-23T20:58:29.608Z,2.10
2018-03-23T21:01:04.403Z,2.10
2018-03-23T21:03:34.362Z,2.20
2018-03-23T21:06:03.360Z,2.20
2018-03-23T21:08:35.104Z,2.10
2018-03-23T21:11:07.528Z,2.10
2018-03-23T21:13:36.472Z,2.10
2018-03-23T21:16:11.680Z,2.10
2018-03-23T21:18:57.964Z,2.20
2018-03-23T21:21:31.815Z,2.10
2018-03-23T21:24:07.844Z,2.00
2018-03-23T21:26:39.940Z,2.00
2018-03-23T21:29:10.456Z,1.90
2018-03-23T21:31:42.528Z,1.90
2018-03-23T21:34:27.755Z,1.90
2018-03-23T21:37:08.511Z,1.90
2018-03-23T21:39:47.720Z,1.90
2018-03-23T21:42:19.400Z,2.00
2018-03-23T21:44:49.156Z,2.10
2018-03-23T21:47:32.248Z,2.10
2018-03-23T21:50:02.205Z,2.20
2018-03-23T21:52:35.315Z,2.10
2018-03-23T21:55:04.456Z,2.00
2018-03-23T21:57:39.298Z,2.00
2018-03-23T22:00:16.795Z,2.10
2018-03-23T22:02:45.056Z,2.00
2018-03-23T22:05:15.727Z,2.10
2018-03-23T22:07:50.951Z,2.10
2018-03-23T22:10:32.403Z,2.10
2018-03-23T22:13:05.578Z,2.10
2018-03-23T22:15:40.031Z,2.10
2018-03-23T22:18:09.147Z,2.00
2018-03-23T22:20:46.759Z,2.00
2018-03-23T22:23:40.475Z,2.00
2018-03-23T22:26:09.520Z,2.00
2018-03-23T22:28:55.015Z,2.00
2018-03-23T22:31:39.904Z,1.90
2018-03-23T22:34:07.979Z,1.90
2018-03-23T22:39:34.185Z,1.90
2018-03-23T22:42:03.147Z,1.90
2018-03-23T22:44:33.006Z,1.80
2018-03-23T22:47:07.235Z,1.80
2018-03-23T22:49:44.588Z,1.80
2018-03-23T22:52:15.839Z,1.70
2018-03-23T22:54:45.867Z,1.70
2018-03-23T22:57:16.755Z,1.70
2018-03-23T23:00:04.054Z,1.70
2018-03-23T23:02:38.224Z,1.80
2018-03-23T23:05:07.347Z,1.70
2018-03-23T23:07:36.295Z,1.80
2018-03-23T23:10:14.395Z,1.90
2018-03-23T23:12:52.203Z,1.90
2018-03-23T23:15:46.051Z,1.90
2018-03-23T23:18:20.287Z,1.90
2018-03-23T23:20:51.491Z,1.90
2018-03-23T23:23:20.450Z,1.90
2018-03-23T23:25:54.759Z,1.90
2018-03-23T23:28:36.275Z,1.80
2018-03-23T23:31:17.191Z,1.70
2018-03-23T23:33:48.271Z,1.70
2018-03-23T23:36:21.951Z,1.70
2018-03-23T23:38:49.979Z,1.60
2018-03-23T23:41:18.011Z,1.60
2018-03-23T23:43:52.579Z,1.50
2018-03-23T23:46:21.607Z,1.50
2018-03-23T23:48:51.675Z,1.50
2018-03-23T23:51:26.027Z,1.50
2018-03-23T23:53:56.111Z,1.60
2018-03-23T23:56:29.770Z,1.70
2018-03-23T23:58:58.792Z,1.80
